Time;durP1;ratioP1;P1;durP2;ratioP2;P2;SDS_P1;SDS_P2;PMS_P1;PMS_P2;Temp;Humidity;BMP_temperature;BMP_pressure;BME280_temperature;BME280_humidity;BME280_pressure;Samples;Min_cycle;Max_cycle;Signal;HPM_P1;HPM_P2
2023/01/25 00:00:05;;;;;;;;;15.25;13.50;;;;;0.59;100.00;100369.97;4962559;28;102571;-71
2023/01/25 00:02:32;;;;;;;;;13.75;10.00;;;;;0.68;100.00;100382.69;4949833;28;102205;-71
2023/01/25 00:04:59;;;;;;;;;14.50;10.00;;;;;0.68;100.00;100378.22;4947162;28;103960;-70
2023/01/25 00:07:26;;;;;;;;;10.50;8.00;;;;;0.74;100.00;100375.19;4949674;28;102524;-70
2023/01/25 00:09:53;;;;;;;;;10.25;9.50;;;;;0.70;100.00;100373.69;4968135;28;102293;-70
2023/01/25 00:12:20;;;;;;;;;9.25;8.75;;;;;0.72;100.00;100365.63;4969529;28;102775;-70
2023/01/25 00:14:46;;;;;;;;;9.75;8.75;;;;;0.69;100.00;100366.66;4969377;28;103993;-71
2023/01/25 00:17:13;;;;;;;;;12.00;9.00;;;;;0.69;100.00;100373.78;4969649;28;102343;-70
2023/01/25 00:19:40;;;;;;;;;12.00;12.00;;;;;0.67;100.00;100371.22;4961935;28;102072;-71
2023/01/25 00:22:07;;;;;;;;;10.00;9.00;;;;;0.71;100.00;100370.09;4969833;28;102299;-72
2023/01/25 00:24:34;;;;;;;;;9.25;9.00;;;;;0.70;100.00;100365.69;4944733;28;103980;-72
2023/01/25 00:27:02;;;;;;;;;8.75;6.50;;;;;0.58;100.00;100363.81;4967413;28;102036;-70
2023/01/25 00:29:29;;;;;;;;;8.00;6.00;;;;;0.62;100.00;100372.44;4963256;28;101988;-70
2023/01/25 00:31:56;;;;;;;;;8.25;8.00;;;;;0.58;100.00;100365.63;4969817;28;102705;-70
2023/01/25 00:34:23;;;;;;;;;9.00;8.00;;;;;0.59;100.00;100370.81;4971487;28;103962;-70
2023/01/25 00:36:55;;;;;;;;;12.75;8.25;;;;;0.59;100.00;100370.81;4968323;28;102514;-71
2023/01/25 00:39:25;;;;;;;;;7.00;5.50;;;;;0.58;100.00;100366.47;4970234;28;105728;-71
2023/01/25 00:41:52;;;;;;;;;9.00;7.00;;;;;0.42;100.00;100336.41;4972915;28;102309;-71
2023/01/25 00:44:19;;;;;;;;;9.75;7.50;;;;;0.59;100.00;100364.63;4970318;28;104081;-71
2023/01/25 00:46:46;;;;;;;;;6.00;5.00;;;;;0.65;100.00;100373.13;4967818;28;102065;-71
2023/01/25 00:49:25;;;;;;;;;8.50;5.50;;;;;0.63;100.00;100364.34;4964850;28;102324;-71
2023/01/25 00:51:54;;;;;;;;;8.50;5.00;;;;;0.57;100.00;100346.13;4962176;28;102401;-72
2023/01/25 00:54:21;;;;;;;;;6.00;5.00;;;;;0.64;100.00;100344.78;4973986;28;103920;-71
2023/01/25 00:56:51;;;;;;;;;5.25;4.75;;;;;0.77;100.00;100345.72;4971353;28;102358;-71
2023/01/25 00:59:19;;;;;;;;;9.75;5.00;;;;;0.63;100.00;100355.53;4964437;28;102127;-71
2023/01/25 01:01:46;;;;;;;;;5.00;4.50;;;;;0.56;100.00;100349.72;4963893;28;102061;-71
2023/01/25 01:04:13;;;;;;;;;8.00;5.75;;;;;0.62;100.00;100362.66;4964273;28;108975;-70
2023/01/25 01:06:41;;;;;;;;;4.75;3.25;;;;;0.66;100.00;100358.84;4962608;28;102423;-70
2023/01/25 01:09:16;;;;;;;;;4.00;4.00;;;;;0.73;100.00;100349.53;4964129;28;102188;-70
2023/01/25 01:11:43;;;;;;;;;6.00;4.75;;;;;0.57;100.00;100308.88;4966892;28;102859;-70
2023/01/25 01:14:11;;;;;;;;;6.00;4.00;;;;;0.76;100.00;100320.06;4968878;28;103989;-70
2023/01/25 01:16:38;;;;;;;;;1.25;1.25;;;;;0.78;100.00;100317.28;4970404;28;102338;-70
2023/01/25 01:19:05;;;;;;;;;4.00;4.00;;;;;0.73;100.00;100312.25;4972384;28;102245;-71
2023/01/25 01:21:32;;;;;;;;;1.75;1.75;;;;;0.70;100.00;100312.47;4975122;28;102452;-72
2023/01/25 01:23:59;;;;;;;;;5.50;4.75;;;;;0.69;100.00;100316.06;4972240;28;103891;-69
2023/01/25 01:26:26;;;;;;;;;6.50;6.00;;;;;0.69;100.00;100318.72;4969266;28;102001;-72
2023/01/25 01:28:53;;;;;;;;;9.25;5.50;;;;;0.66;100.00;100326.91;4971886;28;102006;-69
2023/01/25 01:31:23;;;;;;;;;7.00;5.00;;;;;0.72;100.00;100317.69;4972263;28;102318;-72
2023/01/25 01:33:52;;;;;;;;;5.50;4.00;;;;;0.75;100.00;100294.41;4972946;28;104068;-72
2023/01/25 01:36:21;;;;;;;;;3.50;2.00;;;;;0.84;100.00;100298.28;4965376;28;102395;-72
2023/01/25 01:38:48;;;;;;;;;6.50;4.50;;;;;0.78;100.00;100298.66;4976978;28;102736;-73
2023/01/25 01:41:16;;;;;;;;;4.00;4.00;;;;;0.83;100.00;100297.41;4975682;28;102364;-71
2023/01/25 01:43:43;;;;;;;;;6.75;5.25;;;;;0.83;100.00;100297.41;4971538;28;108766;-72
2023/01/25 01:46:19;;;;;;;;;4.25;4.00;;;;;0.81;100.00;100288.66;4967269;28;102498;-71
2023/01/25 01:49:08;;;;;;;;;4.00;2.00;;;;;0.90;100.00;100288.06;4948986;28;102079;-72
2023/01/25 01:51:45;;;;;;;;;1.50;1.00;;;;;0.98;100.00;100273.41;4943042;28;102861;-72
2023/01/25 01:54:19;;;;;;;;;0.00;0.00;;;;;1.01;100.00;100273.22;4958795;28;104945;-72
2023/01/25 01:57:09;;;;;;;;;2.00;1.00;;;;;1.03;100.00;100266.84;4963481;28;102104;-70
2023/01/25 01:59:59;;;;;;;;;2.00;1.00;;;;;1.02;100.00;100259.81;4965309;28;102288;-70
2023/01/25 02:02:26;;;;;;;;;1.00;0.00;;;;;0.81;99.85;100214.09;4945183;28;102091;-71
2023/01/25 02:04:59;;;;;;;;;0.00;0.00;;;;;1.08;100.00;100261.22;4962816;28;105354;-71
2023/01/25 02:07:42;;;;;;;;;0.00;0.00;;;;;1.02;100.00;100269.59;4960870;28;102275;-71
2023/01/25 02:10:29;;;;;;;;;1.00;1.00;;;;;1.07;100.00;100257.69;4966877;28;103039;-71
2023/01/25 02:13:16;;;;;;;;;3.75;2.00;;;;;1.04;99.95;100254.34;4965699;28;102119;-71
2023/01/25 02:16:00;;;;;;;;;2.25;1.50;;;;;0.99;99.55;100259.16;4953711;28;107482;-71
2023/01/25 02:18:44;;;;;;;;;5.00;4.00;;;;;0.97;99.67;100247.75;4949590;28;102751;-71
2023/01/25 02:21:41;;;;;;;;;1.50;1.50;;;;;1.08;100.00;100250.56;4958084;28;102047;-71
2023/01/25 02:24:36;;;;;;;;;4.00;2.00;;;;;0.88;99.92;100215.44;4956309;28;102004;-71
2023/01/25 02:27:10;;;;;;;;;2.50;2.00;;;;;0.96;98.83;100249.53;4963608;28;109171;-71
2023/01/25 02:29:38;;;;;;;;;5.00;4.50;;;;;0.87;100.00;100245.69;4965256;28;102357;-71
2023/01/25 02:32:05;;;;;;;;;4.50;2.75;;;;;0.92;99.50;100252.50;4969293;28;102329;-71
2023/01/25 02:34:34;;;;;;;;;1.25;1.00;;;;;0.87;99.92;100243.00;4968438;28;102053;-71
2023/01/25 02:37:01;;;;;;;;;5.00;5.00;;;;;0.72;100.00;100240.50;4968515;28;104011;-71
2023/01/25 02:39:29;;;;;;;;;3.25;3.25;;;;;0.79;99.53;100247.97;4964129;28;105305;-71
2023/01/25 02:41:56;;;;;;;;;3.00;3.00;;;;;0.84;100.00;100250.34;4939564;28;101963;-71
2023/01/25 02:44:29;;;;;;;;;2.00;2.00;;;;;0.84;100.00;100261.84;4957182;28;102265;-71
2023/01/25 02:46:59;;;;;;;;;4.00;1.75;;;;;0.87;99.93;100253.66;4959776;28;104597;-71
2023/01/25 02:49:26;;;;;;;;;4.50;3.75;;;;;0.82;99.61;100247.78;4957116;28;102008;-71
2023/01/25 02:51:56;;;;;;;;;4.00;2.50;;;;;0.93;100.00;100262.22;4954542;28;104546;-71
2023/01/25 02:54:25;;;;;;;;;4.50;2.00;;;;;0.88;99.36;100255.38;4970295;28;102006;-71
2023/01/25 02:56:52;;;;;;;;;5.00;5.00;;;;;0.88;99.60;100252.72;4947044;28;104195;-71
2023/01/25 02:59:19;;;;;;;;;4.00;4.00;;;;;0.89;100.00;100249.09;4960781;27;102656;-72
2023/01/25 03:01:46;;;;;;;;;3.25;3.00;;;;;0.77;99.73;100228.56;4970935;28;102097;-71
2023/01/25 03:04:13;;;;;;;;;3.50;3.50;;;;;0.83;100.00;100249.50;4962545;28;102389;-71
2023/01/25 03:06:41;;;;;;;;;3.25;2.00;;;;;0.83;100.00;100241.50;4952762;28;104098;-71
2023/01/25 03:09:09;;;;;;;;;3.00;1.00;;;;;0.90;100.00;100244.63;4952479;28;101951;-71
2023/01/25 03:11:36;;;;;;;;;6.00;4.00;;;;;0.88;100.00;100252.72;4957481;28;102027;-71
2023/01/25 03:14:04;;;;;;;;;5.75;5.00;;;;;0.92;100.00;100249.84;4939232;28;101959;-71
2023/01/25 03:16:31;;;;;;;;;4.00;4.00;;;;;0.72;100.00;100209.38;4946492;28;103499;-71
2023/01/25 03:18:58;;;;;;;;;3.50;2.50;;;;;0.93;100.00;100232.91;4943886;28;101910;-71
2023/01/25 03:21:25;;;;;;;;;4.50;4.00;;;;;0.94;100.00;100239.97;4969744;28;102319;-71
2023/01/25 03:24:00;;;;;;;;;1.50;1.50;;;;;1.02;100.00;100250.97;4949701;28;102346;-71
2023/01/25 03:26:28;;;;;;;;;2.00;1.75;;;;;0.96;100.00;100238.03;4941179;28;104194;-71
2023/01/25 03:28:55;;;;;;;;;3.50;2.00;;;;;0.98;100.00;100246.78;4963036;28;103195;-71
2023/01/25 03:31:22;;;;;;;;;4.00;3.25;;;;;0.90;100.00;100226.81;4952674;28;102294;-71
2023/01/25 03:33:49;;;;;;;;;2.00;1.25;;;;;1.07;100.00;100244.38;4967542;28;102795;-72
2023/01/25 03:36:16;;;;;;;;;1.75;1.00;;;;;1.09;100.00;100244.25;4973858;28;104119;-72
2023/01/25 03:38:43;;;;;;;;;0.25;0.00;;;;;1.13;100.00;100235.97;4968755;28;102468;-71
2023/01/25 03:41:12;;;;;;;;;1.00;1.00;;;;;1.15;100.00;100234.06;4970082;28;102046;-70
2023/01/25 03:43:39;;;;;;;;;1.00;0.00;;;;;1.17;100.00;100236.63;4971184;28;102362;-70
2023/01/25 03:46:06;;;;;;;;;1.25;1.00;;;;;1.18;100.00;100243.66;4966336;28;103976;-71
2023/01/25 03:48:33;;;;;;;;;0.00;0.00;;;;;1.19;100.00;100235.56;4970893;28;102036;-71
2023/01/25 03:51:00;;;;;;;;;0.00;0.00;;;;;1.21;100.00;100233.66;4967338;28;101883;-71
2023/01/25 03:53:29;;;;;;;;;2.50;1.75;;;;;1.15;100.00;100233.22;4965259;28;102459;-71
2023/01/25 03:55:57;;;;;;;;;1.00;1.00;;;;;1.17;99.60;100231.31;4967914;28;104249;-71
2023/01/25 03:58:24;;;;;;;;;1.00;1.00;;;;;1.12;99.30;100222.78;4960046;28;102276;-71
2023/01/25 04:00:54;;;;;;;;;2.00;2.00;;;;;1.06;99.63;100212.50;4953163;28;102350;-71
2023/01/25 04:03:22;;;;;;;;;5.00;5.00;;;;;1.08;100.00;100232.75;4969252;28;102689;-71
2023/01/25 04:05:49;;;;;;;;;2.75;2.75;;;;;1.06;100.00;100207.19;4970125;28;103980;-71
2023/01/25 04:08:16;;;;;;;;;1.25;1.25;;;;;1.16;100.00;100218.94;4970570;28;102179;-71
2023/01/25 04:10:44;;;;;;;;;2.00;1.00;;;;;1.14;100.00;100212.84;4966544;28;102266;-70
2023/01/25 04:13:11;;;;;;;;;4.00;3.75;;;;;1.12;100.00;100209.44;4970652;28;102417;-71
2023/01/25 04:15:38;;;;;;;;;1.75;1.75;;;;;1.17;100.00;100204.66;4966740;28;103978;-71
2023/01/25 04:18:05;;;;;;;;;2.00;1.00;;;;;1.17;100.00;100200.16;4969710;28;101827;-71
2023/01/25 04:20:32;;;;;;;;;1.50;1.00;;;;;1.16;100.00;100200.28;4968080;28;102294;-71
2023/01/25 04:23:00;;;;;;;;;0.25;0.00;;;;;1.20;100.00;100194.66;4960744;28;105142;-71
2023/01/25 04:25:27;;;;;;;;;1.50;0.75;;;;;0.92;99.19;100168.16;4944496;28;104580;-70
2023/01/25 04:27:54;;;;;;;;;2.50;1.00;;;;;1.15;99.58;100198.59;4951456;28;102254;-70
2023/01/25 04:30:21;;;;;;;;;1.00;1.00;;;;;1.11;99.71;100205.06;4961703;28;102974;-72
2023/01/25 04:32:48;;;;;;;;;2.25;2.00;;;;;1.16;100.00;100206.47;4967662;28;102352;-70
2023/01/25 04:35:15;;;;;;;;;1.00;1.00;;;;;1.17;99.60;100194.03;4962320;28;108978;-70
2023/01/25 04:37:42;;;;;;;;;1.00;0.00;;;;;1.20;99.62;100196.47;4966899;28;101982;-71
2023/01/25 04:40:09;;;;;;;;;1.00;1.00;;;;;1.23;99.82;100198.91;4966737;28;102771;-71
2023/01/25 04:42:36;;;;;;;;;1.00;0.00;;;;;1.25;99.96;100194.34;4970760;28;101951;-71
2023/01/25 04:45:04;;;;;;;;;0.50;0.50;;;;;1.14;99.28;100181.75;4955425;28;103597;-71
2023/01/25 04:47:31;;;;;;;;;18.75;17.00;;;;;0.99;99.81;100190.75;4967960;27;102618;-71
2023/01/25 04:49:58;;;;;;;;;9.00;9.00;;;;;1.06;100.00;100188.53;4968100;28;102370;-72
2023/01/25 04:52:25;;;;;;;;;9.25;6.00;;;;;1.10;100.00;100176.72;4958676;28;102011;-71
2023/01/25 04:54:52;;;;;;;;;4.50;3.25;;;;;1.17;100.00;100183.38;4956610;28;104249;-72
2023/01/25 04:57:19;;;;;;;;;3.50;3.50;;;;;1.19;100.00;100186.75;4950116;28;101962;-72
2023/01/25 04:59:45;;;;;;;;;4.00;2.00;;;;;1.15;99.69;100188.78;4959006;28;102184;-71
2023/01/25 05:02:12;;;;;;;;;2.75;2.00;;;;;1.12;99.07;100180.16;4964449;28;102006;-71
2023/01/25 05:04:40;;;;;;;;;14.75;11.25;;;;;0.99;100.00;100184.59;4963160;28;103972;-71
2023/01/25 05:07:06;;;;;;;;;7.00;6.50;;;;;1.00;100.00;100176.47;4955237;28;102025;-70
2023/01/25 05:09:33;;;;;;;;;10.50;7.75;;;;;1.05;100.00;100174.38;4950554;28;102128;-72
2023/01/25 05:12:00;;;;;;;;;9.25;4.75;;;;;0.78;100.00;100134.47;4947762;28;102329;-71
2023/01/25 05:14:27;;;;;;;;;4.50;3.50;;;;;1.06;100.00;100175.22;4940922;28;104870;-71
2023/01/25 05:16:54;;;;;;;;;5.75;3.75;;;;;1.12;100.00;100174.81;4928051;28;102454;-70
2023/01/25 05:19:21;;;;;;;;;2.00;1.00;;;;;1.15;100.00;100174.59;4972314;28;102594;-71
2023/01/25 05:21:58;;;;;;;;;5.00;2.75;;;;;0.90;99.97;100130.97;4976457;28;102405;-71
2023/01/25 05:24:29;;;;;;;;;1.75;1.00;;;;;1.17;100.00;100170.88;4965189;28;108254;-72
2023/01/25 05:27:00;;;;;;;;;2.00;2.00;;;;;1.18;100.00;100161.06;4969670;28;101886;-72
2023/01/25 05:29:27;;;;;;;;;0.00;0.00;;;;;1.19;100.00;100162.78;4967509;28;101977;-72
2023/01/25 05:31:55;;;;;;;;;1.00;0.00;;;;;1.19;100.00;100165.44;4967559;28;101900;-72
2023/01/25 05:34:22;;;;;;;;;5.25;5.00;;;;;1.10;99.36;100163.41;4931610;28;104035;-72
2023/01/25 05:36:49;;;;;;;;;5.25;4.25;;;;;1.09;99.49;100167.00;4955403;28;101950;-72
2023/01/25 05:39:16;;;;;;;;;12.50;10.00;;;;;1.00;100.00;100164.97;4949142;28;102324;-72
2023/01/25 05:41:43;;;;;;;;;13.25;8.50;;;;;1.01;100.00;100161.34;4962568;28;102195;-72
2023/01/25 05:44:10;;;;;;;;;10.00;9.00;;;;;1.01;99.74;100164.03;4969493;28;103781;-72
2023/01/25 05:46:37;;;;;;;;;12.75;10.00;;;;;0.92;99.53;100162.81;4966225;28;102241;-72
2023/01/25 05:49:04;;;;;;;;;5.75;5.75;;;;;0.89;100.00;100158.56;4957895;28;102293;-71
2023/01/25 05:51:31;;;;;;;;;10.25;5.25;;;;;0.97;100.00;100151.88;4960729;28;102347;-72
2023/01/25 05:53:58;;;;;;;;;12.50;10.00;;;;;0.76;100.00;100120.41;4968419;28;104370;-71
2023/01/25 05:56:26;;;;;;;;;12.00;10.00;;;;;0.83;99.93;100158.97;4968620;28;101969;-72
2023/01/25 05:58:54;;;;;;;;;12.00;10.50;;;;;0.86;100.00;100168.53;4967091;28;102065;-72
2023/01/25 06:01:21;;;;;;;;;6.00;6.00;;;;;0.96;100.00;100161.66;4972788;28;102186;-72
2023/01/25 06:03:48;;;;;;;;;4.50;4.00;;;;;0.85;100.00;100133.09;4973185;28;103989;-71
2023/01/25 06:06:15;;;;;;;;;3.00;2.00;;;;;1.05;100.00;100160.19;4970242;28;102221;-71
2023/01/25 06:08:42;;;;;;;;;2.25;1.75;;;;;1.07;100.00;100169.81;4972310;28;102362;-71
2023/01/25 06:11:15;;;;;;;;;3.50;2.00;;;;;1.10;100.00;100161.59;4971506;28;101979;-71
2023/01/25 06:13:43;;;;;;;;;3.00;1.00;;;;;1.12;100.00;100166.84;4971600;28;104569;-71
2023/01/25 06:16:11;;;;;;;;;2.00;1.00;;;;;1.08;99.74;100162.66;4970216;28;102071;-71
2023/01/25 06:18:38;;;;;;;;;1.25;1.25;;;;;1.11;100.00;100163.31;4966561;28;102175;-71
2023/01/25 06:21:05;;;;;;;;;2.50;2.50;;;;;1.08;100.00;100168.00;4964902;28;101965;-71
2023/01/25 06:23:32;;;;;;;;;8.75;5.25;;;;;1.04;100.00;100163.81;4961012;27;104175;-72
2023/01/25 06:26:02;;;;;;;;;8.25;8.00;;;;;1.03;100.00;100164.78;4962484;28;102430;-71
2023/01/25 06:28:31;;;;;;;;;7.75;4.50;;;;;1.08;100.00;100162.66;4959166;28;103678;-72
2023/01/25 06:31:16;;;;;;;;;5.00;4.75;;;;;1.11;100.00;100159.78;4964383;28;102270;-72
2023/01/25 06:33:47;;;;;;;;;3.25;3.25;;;;;1.08;100.00;100160.00;4966314;28;103675;-71
2023/01/25 06:36:17;;;;;;;;;13.75;9.75;;;;;0.99;100.00;100157.97;4967669;28;102360;-72
2023/01/25 06:38:52;;;;;;;;;7.25;6.00;;;;;1.04;100.00;100155.81;4970198;28;101865;-72
2023/01/25 06:41:19;;;;;;;;;11.25;8.00;;;;;1.07;100.00;100156.50;4963752;28;102438;-71
2023/01/25 06:43:48;;;;;;;;;6.25;5.00;;;;;1.04;100.00;100150.50;4957029;28;108860;-71
2023/01/25 06:46:15;;;;;;;;;10.25;8.50;;;;;1.00;100.00;100147.19;4957035;28;102498;-72
2023/01/25 06:48:43;;;;;;;;;13.75;11.50;;;;;0.97;100.00;100154.53;4969454;28;102258;-72
2023/01/25 06:51:12;;;;;;;;;8.00;7.75;;;;;1.02;100.00;100147.94;4969281;28;105936;-71
2023/01/25 06:53:42;;;;;;;;;9.50;6.00;;;;;1.04;100.00;100146.03;4967804;28;104596;-71
2023/01/25 06:56:12;;;;;;;;;10.25;5.75;;;;;0.96;100.00;100131.50;4969495;28;102242;-71
2023/01/25 06:58:40;;;;;;;;;10.50;5.75;;;;;0.98;100.00;100140.28;4963721;28;102195;-71
2023/01/25 07:01:18;;;;;;;;;2.00;2.00;;;;;1.05;100.00;100142.41;4972087;28;102298;-71
2023/01/25 07:03:51;;;;;;;;;1.00;1.00;;;;;1.12;100.00;100145.53;4971771;28;108545;-71
2023/01/25 07:06:19;;;;;;;;;4.75;3.00;;;;;1.17;100.00;100135.41;4953727;28;102409;-72
2023/01/25 07:08:46;;;;;;;;;2.50;2.00;;;;;1.22;100.00;100141.25;4951421;28;102386;-71
2023/01/25 07:11:14;;;;;;;;;1.50;1.00;;;;;1.25;100.00;100131.25;4951414;28;102190;-71
2023/01/25 07:13:46;;;;;;;;;1.75;1.75;;;;;1.28;100.00;100136.38;4965732;28;104025;-71
2023/01/25 07:16:22;;;;;;;;;1.00;1.00;;;;;1.29;100.00;100134.56;4955512;28;102434;-71
2023/01/25 07:18:49;;;;;;;;;0.50;0.50;;;;;1.33;100.00;100136.06;4966702;28;102723;-71
2023/01/25 07:21:21;;;;;;;;;1.50;1.00;;;;;1.36;100.00;100127.84;4964774;28;102113;-71
2023/01/25 07:23:49;;;;;;;;;3.25;2.00;;;;;1.38;100.00;100133.94;4970262;28;108676;-72
2023/01/25 07:26:24;;;;;;;;;1.25;1.00;;;;;1.41;100.00;100128.38;4966709;28;102338;-71
2023/01/25 07:28:54;;;;;;;;;1.75;1.75;;;;;1.42;99.12;100119.44;4959636;28;102179;-71
2023/01/25 07:31:22;;;;;;;;;1.25;1.25;;;;;1.38;99.85;100112.63;4965931;28;102129;-71
2023/01/25 07:33:50;;;;;;;;;1.00;0.00;;;;;1.43;99.80;100121.16;4962499;28;103522;-71
2023/01/25 07:36:18;;;;;;;;;0.00;0.00;;;;;1.27;98.80;100085.84;4954325;28;102450;-71
2023/01/25 07:38:45;;;;;;;;;0.75;0.00;;;;;1.46;98.93;100115.59;4951222;28;110053;-71
2023/01/25 07:41:13;;;;;;;;;3.00;1.25;;;;;1.46;99.01;100110.25;4966426;28;102027;-71
2023/01/25 07:43:41;;;;;;;;;1.00;1.00;;;;;1.49;98.48;100110.03;4967804;28;104087;-71
2023/01/25 07:46:10;;;;;;;;;1.50;0.75;;;;;1.49;97.89;100104.72;4948609;28;102659;-71
2023/01/25 07:48:39;;;;;;;;;1.00;0.75;;;;;1.50;97.96;100103.75;4961712;28;102099;-71
2023/01/25 07:51:11;;;;;;;;;2.00;0.25;;;;;1.51;98.20;100112.63;4938772;28;102383;-71
2023/01/25 07:53:40;;;;;;;;;1.25;1.00;;;;;1.51;97.66;100110.81;4943493;28;103142;-71
2023/01/25 07:56:09;;;;;;;;;2.00;1.00;;;;;1.52;97.70;100119.66;4943040;28;103804;-71
2023/01/25 07:58:36;;;;;;;;;1.75;1.00;;;;;1.48;97.84;100113.69;4941123;28;102470;-71
2023/01/25 08:01:11;;;;;;;;;3.25;2.00;;;;;1.47;97.44;100117.31;4946926;28;102504;-71
2023/01/25 08:03:38;;;;;;;;;1.25;1.00;;;;;1.33;97.13;100093.44;4935979;28;103950;-71
2023/01/25 08:06:06;;;;;;;;;2.75;1.00;;;;;1.47;97.78;100108.47;4939126;28;101984;-71
2023/01/25 08:08:35;;;;;;;;;2.75;1.75;;;;;1.47;97.87;100100.47;4944712;28;102305;-71
2023/01/25 08:11:15;;;;;;;;;2.50;2.50;;;;;1.42;97.34;100100.78;4941271;28;102337;-71
2023/01/25 08:13:46;;;;;;;;;6.00;5.00;;;;;1.38;96.60;100106.44;4948035;28;103969;-71
2023/01/25 08:16:15;;;;;;;;;17.00;12.75;;;;;1.24;97.66;100097.59;4948067;28;102036;-71
2023/01/25 08:18:42;;;;;;;;;8.50;5.00;;;;;1.32;98.80;100091.72;4949060;28;102145;-71
2023/01/25 08:21:09;;;;;;;;;7.50;6.00;;;;;1.38;98.40;100093.97;4944812;28;102035;-72
2023/01/25 08:23:36;;;;;;;;;5.00;5.00;;;;;1.43;98.40;100089.16;4928124;28;104673;-71
2023/01/25 08:26:06;;;;;;;;;3.00;2.75;;;;;1.44;97.66;100090.84;4926592;28;102052;-71
2023/01/25 08:28:34;;;;;;;;;5.00;3.00;;;;;1.45;98.43;100081.91;4947860;28;102136;-71
2023/01/25 08:31:20;;;;;;;;;3.00;2.00;;;;;1.46;97.87;100086.28;4950757;28;102220;-71
2023/01/25 08:33:48;;;;;;;;;2.00;2.00;;;;;1.51;98.17;100081.47;4945185;28;108604;-71
2023/01/25 08:36:18;;;;;;;;;2.25;2.25;;;;;1.53;97.69;100082.22;4944870;28;102107;-71
2023/01/25 08:38:46;;;;;;;;;2.00;2.00;;;;;1.57;97.75;100080.22;4940469;28;102361;-71
2023/01/25 08:41:16;;;;;;;;;0.00;0.00;;;;;1.59;97.50;100079.13;4930345;28;102504;-71
2023/01/25 08:43:44;;;;;;;;;2.00;1.00;;;;;1.63;98.45;100074.41;4944352;28;104166;-71
2023/01/25 08:46:14;;;;;;;;;2.00;1.00;;;;;1.61;97.39;100076.38;4952745;28;102034;-71
2023/01/25 08:48:41;;;;;;;;;0.00;0.00;;;;;1.64;97.74;100076.13;4953220;28;102843;-71
2023/01/25 08:51:11;;;;;;;;;2.00;1.00;;;;;1.65;96.93;100070.72;4974246;28;102271;-71
2023/01/25 08:53:38;;;;;;;;;3.25;3.25;;;;;1.66;97.12;100069.75;4972934;28;103998;-71
2023/01/25 08:56:11;;;;;;;;;2.00;1.75;;;;;1.59;96.55;100071.13;4968852;28;102343;-71
2023/01/25 08:58:40;;;;;;;;;10.00;10.00;;;;;1.53;97.45;100063.56;4964473;28;102221;-71
2023/01/25 09:01:10;;;;;;;;;6.00;5.00;;;;;1.59;97.46;100076.47;4954996;28;102311;-71
2023/01/25 09:03:39;;;;;;;;;5.00;2.50;;;;;1.63;96.87;100075.28;4945609;28;104204;-71
2023/01/25 09:06:07;;;;;;;;;5.00;4.50;;;;;1.64;96.78;100074.31;4947499;28;102047;-71
2023/01/25 09:08:35;;;;;;;;;10.00;7.50;;;;;1.54;97.01;100075.94;4963012;28;102048;-70
2023/01/25 09:11:04;;;;;;;;;12.00;9.25;;;;;1.46;96.95;100072.97;4959900;28;102509;-69
2023/01/25 09:13:31;;;;;;;;;15.25;12.50;;;;;1.41;96.59;100075.09;4942659;28;104216;-71
2023/01/25 09:16:06;;;;;;;;;14.50;13.00;;;;;1.45;97.12;100071.25;4967694;28;102334;-71
2023/01/25 09:18:35;;;;;;;;;26.75;21.50;;;;;1.33;97.45;100064.13;4960229;28;102322;-71
2023/01/25 09:21:20;;;;;;;;;25.25;18.25;;;;;1.50;97.41;100066.44;4974140;28;102481;-71
2023/01/25 09:23:49;;;;;;;;;17.25;14.75;;;;;1.60;98.10;100059.50;4958418;28;108172;-71
2023/01/25 09:26:36;;;;;;;;;7.50;7.00;;;;;1.71;97.68;100062.25;4958864;28;103884;-71
2023/01/25 09:29:03;;;;;;;;;7.50;5.75;;;;;1.58;97.15;100017.91;4952717;28;103125;-70
2023/01/25 09:31:30;;;;;;;;;8.00;7.00;;;;;1.84;96.51;100045.41;4950244;28;104012;-70
2023/01/25 09:33:57;;;;;;;;;7.00;7.00;;;;;1.87;96.42;100042.50;4943354;28;103883;-70
2023/01/25 09:36:24;;;;;;;;;13.00;9.00;;;;;1.90;95.42;100039.59;4963663;28;102375;-70
2023/01/25 09:38:52;;;;;;;;;10.00;9.50;;;;;1.89;95.59;100037.91;4967181;28;102320;-72
2023/01/25 09:41:18;;;;;;;;;13.25;6.75;;;;;1.95;96.47;100034.78;4973919;28;102153;-71
2023/01/25 09:44:04;;;;;;;;;8.50;7.50;;;;;1.97;94.68;100024.88;4967747;28;104008;-70
2023/01/25 09:46:44;;;;;;;;;6.75;5.25;;;;;2.01;94.64;100021.00;4954384;28;102287;-71
2023/01/25 09:49:46;;;;;;;;;8.00;4.50;;;;;2.13;95.29;100014.75;4962436;28;102749;-71
2023/01/25 09:52:22;;;;;;;;;9.00;6.75;;;;;2.23;94.99;100015.78;4948681;28;102500;-71
2023/01/25 09:54:50;;;;;;;;;10.00;9.00;;;;;2.26;94.17;100007.56;4940619;28;108699;-71
2023/01/25 09:57:31;;;;;;;;;5.75;5.25;;;;;2.30;92.76;99995.69;4952542;28;102207;-71
2023/01/25 10:00:04;;;;;;;;;5.00;3.00;;;;;2.42;93.10;99997.44;4950777;28;102325;-71
2023/01/25 10:02:51;;;;;;;;;7.00;4.50;;;;;2.55;91.60;99990.22;4968317;28;102526;-71
2023/01/25 10:05:26;;;;;;;;;3.00;3.00;;;;;2.68;91.00;99990.13;4965581;28;108763;-71
2023/01/25 10:08:34;;;;;;;;;6.75;6.25;;;;;2.66;87.92;100000.91;4961598;28;102203;-72
2023/01/25 10:11:23;;;;;;;;;7.75;5.00;;;;;2.78;90.51;99993.81;4925387;28;102431;-71
2023/01/25 10:13:50;;;;;;;;;6.00;5.00;;;;;2.84;89.80;99989.78;4958979;28;102365;-71
2023/01/25 10:16:25;;;;;;;;;10.75;10.75;;;;;2.75;87.74;99990.53;4946382;28;104237;-71
2023/01/25 10:19:25;;;;;;;;;8.25;7.00;;;;;2.79;87.23;99970.63;4946205;28;101942;-71
2023/01/25 10:21:59;;;;;;;;;7.75;7.75;;;;;2.84;88.89;99968.41;4940555;28;102495;-71
2023/01/25 10:24:42;;;;;;;;;4.00;4.00;;;;;2.95;88.74;99968.44;4949485;28;102523;-71
2023/01/25 10:27:57;;;;;;;;;9.00;8.50;;;;;3.00;87.83;99968.94;4959138;28;103946;-71
2023/01/25 10:30:28;;;;;;;;;22.75;17.75;;;;;2.58;84.53;99957.94;4908865;28;102278;-71
2023/01/25 10:33:06;;;;;;;;;21.50;18.00;;;;;2.48;85.14;99962.25;4962753;28;102127;-71
2023/01/25 10:35:37;;;;;;;;;12.00;11.00;;;;;2.50;86.48;99932.78;4950458;28;102234;-71
2023/01/25 10:38:44;;;;;;;;;11.75;10.00;;;;;2.53;84.36;99948.56;4960761;28;104173;-71
2023/01/25 10:41:15;;;;;;;;;13.25;9.75;;;;;2.48;85.32;99956.94;4958621;28;102428;-71
2023/01/25 10:43:42;;;;;;;;;15.00;12.50;;;;;2.43;87.70;99948.41;4963133;28;102237;-71
2023/01/25 10:46:21;;;;;;;;;16.25;12.00;;;;;2.47;86.92;99949.91;4948884;28;101881;-71
2023/01/25 10:48:48;;;;;;;;;10.00;8.50;;;;;2.55;87.24;99942.16;4951203;28;108983;-71
2023/01/25 10:51:34;;;;;;;;;16.00;12.75;;;;;2.52;86.31;99942.38;4969874;28;102479;-70
2023/01/25 10:54:03;;;;;;;;;14.75;12.75;;;;;2.58;87.34;99936.56;4955332;28;102216;-70
2023/01/25 10:56:38;;;;;;;;;12.00;8.50;;;;;2.70;87.47;99930.28;4966952;28;102265;-70
2023/01/25 10:59:15;;;;;;;;;8.75;7.75;;;;;2.69;86.04;99928.59;4957131;28;103996;-70
2023/01/25 11:01:42;;;;;;;;;24.75;21.00;;;;;2.55;86.05;99914.59;4947246;28;105885;-71
2023/01/25 11:04:30;;;;;;;;;25.50;23.00;;;;;2.49;86.82;99913.25;4968280;28;102336;-70
2023/01/25 11:06:58;;;;;;;;;14.25;13.75;;;;;2.56;85.58;99906.50;4967999;28;102352;-70
2023/01/25 11:09:28;;;;;;;;;18.25;15.00;;;;;2.45;84.42;99903.78;4982620;28;104067;-71
2023/01/25 11:11:58;;;;;;;;;14.50;13.00;;;;;2.59;84.91;99906.25;4969710;28;102240;-70
2023/01/25 11:14:28;;;;;;;;;11.25;10.75;;;;;2.58;83.81;99899.19;4967901;28;101907;-72
2023/01/25 11:16:57;;;;;;;;;15.00;10.00;;;;;2.60;84.75;99907.94;4959559;28;102406;-70
2023/01/25 11:19:34;;;;;;;;;12.25;9.75;;;;;2.61;82.80;99890.94;4951235;28;104005;-71
2023/01/25 11:22:05;;;;;;;;;10.75;9.00;;;;;2.63;84.90;99897.03;4944027;28;102261;-70
2023/01/25 11:24:34;;;;;;;;;14.50;10.50;;;;;2.74;84.55;99892.69;4960908;28;102175;-71
2023/01/25 11:27:16;;;;;;;;;11.00;7.50;;;;;2.73;83.38;99875.81;4959545;28;102359;-71
2023/01/25 11:29:45;;;;;;;;;9.00;7.50;;;;;2.68;82.42;99868.16;4970339;28;103878;-71
2023/01/25 11:32:21;;;;;;;;;7.00;6.00;;;;;2.70;83.25;99866.19;4966410;28;102396;-71
2023/01/25 11:34:50;;;;;;;;;4.50;3.25;;;;;2.87;84.58;99869.38;4971061;28;102346;-70